Dunav 8 — YP2566 — position and weather

sailwx.info

Track history (hours):
 
Tides and Currents Weather Stations Pressure Air Temp Water Temp Dewpoint Dewpoint Depression Visibility Wind Speed Wind Dir Waves Ship Positions

Dunav 8

Last reported at 2018-Jun-19 12:30 UTC. Time now 2018-Jun-19 12:37 UTC.
Position N 44°14' E 028°22'.

Length 67 m.

MMSI: 264162566.

Date/timePositionNaut miles runAvg speedWind from/ knotsBaromVisibWave heightAir tempDewpointWater temp
2018-Jun-19 12:30N 44°14' E 028°22'1 2.3
2018-Jun-19 12:00N 44°15' E 028°21'1 2.3
2018-Jun-19 11:30N 44°15' E 028°20'1 2.2
2018-Jun-19 10:59N 44°15' E 028°18'1 2.4
2018-Jun-19 10:27N 44°15' E 028°17'1 2.3
2018-Jun-19 10:00N 44°15' E 028°15'1 2.4
2018-Jun-19 09:29N 44°15' E 028°13'1 2.4
2018-Jun-19 08:58N 44°16' E 028°12'3 2.6
2018-Jun-19 07:45N 44°16' E 028°07'1 2.7
2018-Jun-19 07:25N 44°16' E 028°06'5 1.3
2018-Jun-19 03:25N 44°19' E 028°00'0 0.0
2018-Jun-19 02:52N 44°19' E 028°00'  
2018-Jun-16 15:36N 44°17' E 028°05'1 2.8
2018-Jun-16 15:19N 44°16' E 028°06'1 2.8
2018-Jun-16 15:00N 44°16' E 028°07'1 2.8
2018-Jun-16 14:30N 44°16' E 028°09'1 2.9
2018-Jun-16 14:00N 44°16' E 028°11'1 3.0
2018-Jun-16 13:30N 44°15' E 028°13'2 3.0
2018-Jun-16 12:58N 44°15' E 028°15'1 3.1
2018-Jun-16 12:30N 44°15' E 028°17'2 3.1
2018-Jun-16 12:00N 44°15' E 028°19'2 3.0
2018-Jun-16 11:27N 44°14' E 028°22'1 3.1
2018-Jun-16 11:00N 44°13' E 028°23'2 3.2
2018-Jun-16 10:27N 44°12' E 028°24'1 2.3
2018-Jun-16 10:00N 44°11' E 028°24'0 0.0
2018-Jun-16 09:31N 44°11' E 028°24'0 0.0
2018-Jun-16 08:59N 44°11' E 028°24'0 0.0
2018-Jun-16 08:30N 44°11' E 028°24'0 0.0
2018-Jun-16 08:00N 44°11' E 028°24'0 0.0
2018-Jun-16 07:31N 44°11' E 028°24'0 0.0
2018-Jun-16 07:00N 44°11' E 028°24'0 0.0
2018-Jun-16 06:30N 44°11' E 028°24'0 0.1
2018-Jun-16 06:00N 44°11' E 028°24'0 0.0
2018-Jun-16 05:30N 44°11' E 028°24'0 0.0
2018-Jun-16 05:00N 44°11' E 028°24'0 0.0
2018-Jun-16 04:30N 44°11' E 028°24'0 0.0
2018-Jun-16 04:00N 44°11' E 028°24'0 0.0
2018-Jun-16 03:30N 44°11' E 028°24'0 0.0
2018-Jun-16 03:01N 44°11' E 028°24'0 0.0
2018-Jun-16 02:30N 44°11' E 028°24'0 0.0
2018-Jun-16 02:01N 44°11' E 028°24'0 0.0
2018-Jun-16 01:30N 44°11' E 028°24'0 0.0
2018-Jun-16 01:01N 44°11' E 028°24'0 0.0
2018-Jun-16 00:30N 44°11' E 028°24'0 0.0
2018-Jun-16 00:00N 44°11' E 028°24'0 0.0
2018-Jun-15 23:30N 44°11' E 028°24'0 0.0
2018-Jun-15 22:57N 44°11' E 028°24'0 0.0
2018-Jun-15 22:30N 44°11' E 028°24'0 0.0
2018-Jun-15 22:01N 44°11' E 028°24'0 0.0
2018-Jun-15 21:31N 44°11' E 028°24'0 0.0
2018-Jun-15 21:00N 44°11' E 028°24'0 0.0
2018-Jun-15 20:30N 44°11' E 028°24'0 0.0
2018-Jun-15 20:00N 44°11' E 028°24'0 0.0
2018-Jun-15 19:30N 44°11' E 028°24'0 0.0
2018-Jun-15 19:00N 44°11' E 028°24'0 0.0
2018-Jun-15 18:30N 44°11' E 028°24'0 0.0
2018-Jun-15 18:00N 44°11' E 028°24'0 0.0
2018-Jun-15 17:30N 44°11' E 028°24'0 0.0
2018-Jun-15 17:00N 44°11' E 028°24'0 0.0
2018-Jun-15 16:30N 44°11' E 028°24'0 0.0
2018-Jun-15 16:00N 44°11' E 028°24'0 0.0
2018-Jun-15 15:30N 44°11' E 028°24'0 0.0
2018-Jun-15 15:00N 44°11' E 028°24'0 0.0
2018-Jun-15 14:30N 44°11' E 028°24'0 0.2
2018-Jun-15 14:00N 44°11' E 028°24'2 2.3
2018-Jun-15 13:19N 44°12' E 028°23'1 2.5
2018-Jun-15 13:00N 44°13' E 028°23'1 2.5
2018-Jun-15 12:30N 44°14' E 028°22'1 2.5
2018-Jun-15 12:00N 44°15' E 028°21'1 2.5
2018-Jun-15 11:30N 44°15' E 028°19'1 2.5
2018-Jun-15 11:00N 44°15' E 028°17'1 2.5
2018-Jun-15 10:30N 44°15' E 028°15'3 2.5
2018-Jun-15 09:27N 44°16' E 028°12'1 2.4
2018-Jun-15 09:00N 44°16' E 028°10'1 2.3
2018-Jun-15 08:26N 44°16' E 028°09'1 2.3
2018-Jun-15 07:56N 44°16' E 028°07'1 2.4
2018-Jun-15 07:26N 44°16' E 028°05'4 0.3
2018-Jun-14 18:49N 44°19' E 028°01'5 0.1
2018-Jun-12 15:02N 44°16' E 028°06'0 2.9
2018-Jun-12 15:00N 44°16' E 028°06'1 2.9
2018-Jun-12 14:30N 44°16' E 028°08'2 3.1
2018-Jun-12 14:01N 44°16' E 028°10'2 3.1
2018-Jun-12 13:31N 44°16' E 028°12'3 3.1
2018-Jun-12 12:39N 44°15' E 028°16'1 3.2
2018-Jun-12 12:25N 44°15' E 028°17'1 2.9
2018-Jun-12 12:00N 44°15' E 028°18'1 2.9
2018-Jun-12 11:30N 44°15' E 028°20'2 3.0
2018-Jun-12 11:00N 44°14' E 028°22'2 3.1
2018-Jun-12 10:28N 44°13' E 028°23'2 3.2
2018-Jun-12 09:57N 44°11' E 028°24'0 0.5
2018-Jun-12 09:10N 44°11' E 028°24'0 0.0
2018-Jun-12 08:57N 44°11' E 028°24'0 0.0
2018-Jun-12 08:30N 44°11' E 028°24'0 0.0
2018-Jun-12 08:01N 44°11' E 028°24'0 0.0
2018-Jun-12 07:30N 44°11' E 028°24'0 0.0
2018-Jun-12 06:59N 44°11' E 028°24'0 0.0
2018-Jun-12 06:29N 44°11' E 028°24'0 0.2
2018-Jun-12 06:00N 44°11' E 028°24'0 0.0
2018-Jun-12 05:30N 44°11' E 028°24'0 0.0
2018-Jun-12 05:00N 44°11' E 028°24'0 0.0
2018-Jun-12 04:30N 44°11' E 028°24'0 0.0
2018-Jun-12 04:00N 44°11' E 028°24'0 0.0
2018-Jun-12 03:30N 44°11' E 028°24'0 0.0
2018-Jun-12 03:01N 44°11' E 028°24'0 0.0
2018-Jun-12 02:29N 44°11' E 028°24'0 0.0
2018-Jun-12 02:00N 44°11' E 028°24'0 0.0
2018-Jun-12 01:30N 44°11' E 028°24'0 0.0
2018-Jun-12 01:00N 44°11' E 028°24'0 0.0
2018-Jun-12 00:30N 44°11' E 028°24'0 0.0
2018-Jun-12 00:00N 44°11' E 028°24'0 0.0
2018-Jun-11 23:30N 44°11' E 028°24'0 0.0
2018-Jun-11 23:01N 44°11' E 028°24'0 0.0
2018-Jun-11 22:30N 44°11' E 028°24'0 0.0
2018-Jun-11 22:00N 44°11' E 028°24'0 0.0
2018-Jun-11 21:30N 44°11' E 028°24'0 0.0
2018-Jun-11 21:00N 44°11' E 028°24'0 0.0
2018-Jun-11 20:30N 44°11' E 028°24'0 0.0
2018-Jun-11 19:59N 44°11' E 028°24'0 0.0
2018-Jun-11 19:30N 44°11' E 028°24'0 0.0
2018-Jun-11 19:00N 44°11' E 028°24'0 0.0
2018-Jun-11 18:30N 44°11' E 028°24'0 0.0
2018-Jun-11 18:00N 44°11' E 028°24'0 0.6
2018-Jun-11 17:29N 44°11' E 028°24'1 2.2
2018-Jun-11 17:00N 44°12' E 028°23'1 2.6
2018-Jun-11 16:29N 44°13' E 028°23'1 2.4
2018-Jun-11 16:00N 44°14' E 028°22'1 2.5
2018-Jun-11 15:30N 44°15' E 028°20'1 2.6
2018-Jun-11 15:00N 44°15' E 028°19'2 2.5
2018-Jun-11 14:12N 44°15' E 028°16'0 2.5
2018-Jun-11 14:00N 44°15' E 028°15'1 2.4
2018-Jun-11 13:24N 44°15' E 028°13'4 2.6
2018-Jun-11 11:55N 44°16' E 028°08'1 2.6
2018-Jun-11 11:27N 44°16' E 028°06'  
Track history (hours):
 
Tides and Currents Weather Stations Pressure Air Temp Water Temp Dewpoint Dewpoint Depression Visibility Wind Speed Wind Dir Waves Ship Positions

Dunav 8

Last reported at 2018-Jun-19 12:30 UTC. Time now 2018-Jun-19 12:37 UTC.
Position N 44°14' E 028°22'.

Length 67 m.

MMSI: 264162566.

Date/timePositionNaut miles runAvg speedWind from/ knotsBaromVisibWave heightAir tempDewpointWater temp
2018-Jun-19 12:30N 44°14' E 028°22'1 2.3
2018-Jun-19 12:00N 44°15' E 028°21'1 2.3
2018-Jun-19 11:30N 44°15' E 028°20'1 2.2
2018-Jun-19 10:59N 44°15' E 028°18'1 2.4
2018-Jun-19 10:27N 44°15' E 028°17'1 2.3
2018-Jun-19 10:00N 44°15' E 028°15'1 2.4
2018-Jun-19 09:29N 44°15' E 028°13'1 2.4
2018-Jun-19 08:58N 44°16' E 028°12'3 2.6
2018-Jun-19 07:45N 44°16' E 028°07'1 2.7
2018-Jun-19 07:25N 44°16' E 028°06'5 1.3
2018-Jun-19 03:25N 44°19' E 028°00'0 0.0
2018-Jun-19 02:52N 44°19' E 028°00'  
2018-Jun-16 15:36N 44°17' E 028°05'1 2.8
2018-Jun-16 15:19N 44°16' E 028°06'1 2.8
2018-Jun-16 15:00N 44°16' E 028°07'1 2.8
2018-Jun-16 14:30N 44°16' E 028°09'1 2.9
2018-Jun-16 14:00N 44°16' E 028°11'1 3.0
2018-Jun-16 13:30N 44°15' E 028°13'2 3.0
2018-Jun-16 12:58N 44°15' E 028°15'1 3.1
2018-Jun-16 12:30N 44°15' E 028°17'2 3.1
2018-Jun-16 12:00N 44°15' E 028°19'2 3.0
2018-Jun-16 11:27N 44°14' E 028°22'1 3.1
2018-Jun-16 11:00N 44°13' E 028°23'2 3.2
2018-Jun-16 10:27N 44°12' E 028°24'1 2.3
2018-Jun-16 10:00N 44°11' E 028°24'0 0.0
2018-Jun-16 09:31N 44°11' E 028°24'0 0.0
2018-Jun-16 08:59N 44°11' E 028°24'0 0.0
2018-Jun-16 08:30N 44°11' E 028°24'0 0.0
2018-Jun-16 08:00N 44°11' E 028°24'0 0.0
2018-Jun-16 07:31N 44°11' E 028°24'0 0.0
2018-Jun-16 07:00N 44°11' E 028°24'0 0.0
2018-Jun-16 06:30N 44°11' E 028°24'0 0.1
2018-Jun-16 06:00N 44°11' E 028°24'0 0.0
2018-Jun-16 05:30N 44°11' E 028°24'0 0.0
2018-Jun-16 05:00N 44°11' E 028°24'0 0.0
2018-Jun-16 04:30N 44°11' E 028°24'0 0.0
2018-Jun-16 04:00N 44°11' E 028°24'0 0.0
2018-Jun-16 03:30N 44°11' E 028°24'0 0.0
2018-Jun-16 03:01N 44°11' E 028°24'0 0.0
2018-Jun-16 02:30N 44°11' E 028°24'0 0.0
2018-Jun-16 02:01N 44°11' E 028°24'0 0.0
2018-Jun-16 01:30N 44°11' E 028°24'0 0.0
2018-Jun-16 01:01N 44°11' E 028°24'0 0.0
2018-Jun-16 00:30N 44°11' E 028°24'0 0.0
2018-Jun-16 00:00N 44°11' E 028°24'0 0.0
2018-Jun-15 23:30N 44°11' E 028°24'0 0.0
2018-Jun-15 22:57N 44°11' E 028°24'0 0.0
2018-Jun-15 22:30N 44°11' E 028°24'0 0.0
2018-Jun-15 22:01N 44°11' E 028°24'0 0.0
2018-Jun-15 21:31N 44°11' E 028°24'0 0.0
2018-Jun-15 21:00N 44°11' E 028°24'0 0.0
2018-Jun-15 20:30N 44°11' E 028°24'0 0.0
2018-Jun-15 20:00N 44°11' E 028°24'0 0.0
2018-Jun-15 19:30N 44°11' E 028°24'0 0.0
2018-Jun-15 19:00N 44°11' E 028°24'0 0.0
2018-Jun-15 18:30N 44°11' E 028°24'0 0.0
2018-Jun-15 18:00N 44°11' E 028°24'0 0.0
2018-Jun-15 17:30N 44°11' E 028°24'0 0.0
2018-Jun-15 17:00N 44°11' E 028°24'0 0.0
2018-Jun-15 16:30N 44°11' E 028°24'0 0.0
2018-Jun-15 16:00N 44°11' E 028°24'0 0.0
2018-Jun-15 15:30N 44°11' E 028°24'0 0.0
2018-Jun-15 15:00N 44°11' E 028°24'0 0.0
2018-Jun-15 14:30N 44°11' E 028°24'0 0.2
2018-Jun-15 14:00N 44°11' E 028°24'2 2.3
2018-Jun-15 13:19N 44°12' E 028°23'1 2.5
2018-Jun-15 13:00N 44°13' E 028°23'1 2.5
2018-Jun-15 12:30N 44°14' E 028°22'1 2.5
2018-Jun-15 12:00N 44°15' E 028°21'1 2.5
2018-Jun-15 11:30N 44°15' E 028°19'1 2.5
2018-Jun-15 11:00N 44°15' E 028°17'1 2.5
2018-Jun-15 10:30N 44°15' E 028°15'3 2.5
2018-Jun-15 09:27N 44°16' E 028°12'1 2.4
2018-Jun-15 09:00N 44°16' E 028°10'1 2.3
2018-Jun-15 08:26N 44°16' E 028°09'1 2.3
2018-Jun-15 07:56N 44°16' E 028°07'1 2.4
2018-Jun-15 07:26N 44°16' E 028°05'4 0.3
2018-Jun-14 18:49N 44°19' E 028°01'5 0.1
2018-Jun-12 15:02N 44°16' E 028°06'0 2.9
2018-Jun-12 15:00N 44°16' E 028°06'1 2.9
2018-Jun-12 14:30N 44°16' E 028°08'2 3.1
2018-Jun-12 14:01N 44°16' E 028°10'2 3.1
2018-Jun-12 13:31N 44°16' E 028°12'3 3.1
2018-Jun-12 12:39N 44°15' E 028°16'1 3.2
2018-Jun-12 12:25N 44°15' E 028°17'1 2.9
2018-Jun-12 12:00N 44°15' E 028°18'1 2.9
2018-Jun-12 11:30N 44°15' E 028°20'2 3.0
2018-Jun-12 11:00N 44°14' E 028°22'2 3.1
2018-Jun-12 10:28N 44°13' E 028°23'2 3.2
2018-Jun-12 09:57N 44°11' E 028°24'0 0.5
2018-Jun-12 09:10N 44°11' E 028°24'0 0.0
2018-Jun-12 08:57N 44°11' E 028°24'0 0.0
2018-Jun-12 08:30N 44°11' E 028°24'0 0.0
2018-Jun-12 08:01N 44°11' E 028°24'0 0.0
2018-Jun-12 07:30N 44°11' E 028°24'0 0.0
2018-Jun-12 06:59N 44°11' E 028°24'0 0.0
2018-Jun-12 06:29N 44°11' E 028°24'0 0.2
2018-Jun-12 06:00N 44°11' E 028°24'0 0.0
2018-Jun-12 05:30N 44°11' E 028°24'0 0.0
2018-Jun-12 05:00N 44°11' E 028°24'0 0.0
2018-Jun-12 04:30N 44°11' E 028°24'0 0.0
2018-Jun-12 04:00N 44°11' E 028°24'0 0.0
2018-Jun-12 03:30N 44°11' E 028°24'0 0.0
2018-Jun-12 03:01N 44°11' E 028°24'0 0.0
2018-Jun-12 02:29N 44°11' E 028°24'0 0.0
2018-Jun-12 02:00N 44°11' E 028°24'0 0.0
2018-Jun-12 01:30N 44°11' E 028°24'0 0.0
2018-Jun-12 01:00N 44°11' E 028°24'0 0.0
2018-Jun-12 00:30N 44°11' E 028°24'0 0.0
2018-Jun-12 00:00N 44°11' E 028°24'0 0.0
2018-Jun-11 23:30N 44°11' E 028°24'0 0.0
2018-Jun-11 23:01N 44°11' E 028°24'0 0.0
2018-Jun-11 22:30N 44°11' E 028°24'0 0.0
2018-Jun-11 22:00N 44°11' E 028°24'0 0.0
2018-Jun-11 21:30N 44°11' E 028°24'0 0.0
2018-Jun-11 21:00N 44°11' E 028°24'0 0.0
2018-Jun-11 20:30N 44°11' E 028°24'0 0.0
2018-Jun-11 19:59N 44°11' E 028°24'0 0.0
2018-Jun-11 19:30N 44°11' E 028°24'0 0.0
2018-Jun-11 19:00N 44°11' E 028°24'0 0.0
2018-Jun-11 18:30N 44°11' E 028°24'0 0.0
2018-Jun-11 18:00N 44°11' E 028°24'0 0.6
2018-Jun-11 17:29N 44°11' E 028°24'1 2.2
2018-Jun-11 17:00N 44°12' E 028°23'1 2.6
2018-Jun-11 16:29N 44°13' E 028°23'1 2.4
2018-Jun-11 16:00N 44°14' E 028°22'1 2.5
2018-Jun-11 15:30N 44°15' E 028°20'1 2.6
2018-Jun-11 15:00N 44°15' E 028°19'2 2.5
2018-Jun-11 14:12N 44°15' E 028°16'0 2.5
2018-Jun-11 14:00N 44°15' E 028°15'1 2.4
2018-Jun-11 13:24N 44°15' E 028°13'4 2.6
2018-Jun-11 11:55N 44°16' E 028°08'1 2.6
2018-Jun-11 11:27N 44°16' E 028°06'  

Dump ship's entire track history